LTBR/YEI METAR and TAF weather

Enter ICAO airport designator
Station Type Date Time Source
LTBR METAR 2019/04/23 04:20 UTC NOAA

LTBR 230420Z 00000KT CAVOK 02/01 Q1025 NOSIG


Station Type Date Time Source
LTBR Decoded METAR 2019/04/23 04:20 UTC NOAA

Bursa / Yenisehir, Mil-Civ, Turkey (LTBR) 40-15-19N 029-33-45E
Apr 23, 2019 - 12:20 AM EDT / 2019.04.23 0420 UTC
Wind: Calm:0
Visibility: greater than 7 mile(s):0
Temperature: 35 F (2 C)
Dew Point: 33 F (1 C)
Relative Humidity: 93%
Pressure (altimeter): 30.27 in. Hg (1025 hPa)
ob: LTBR 230420Z 00000KT CAVOK 02/01 Q1025 NOSIG
cycle: 4

Station Type Date Time Source
LTBR TAF 2019/04/22 18:03 UTC NOAA

TAF LTBR 221640Z 2218/2318 VRB02KT CAVOK PROB30 2303/2306 4000 BR PROB40 2312/2316 35012KT FEW040

Example: see airport list